VCE weather

Venice Marco Polo Airport
Venice, Veneto, Italy

Public forecast

Using degrees Celsius for public forecast. Weather courtesy of forecast.io.

Current aviation weather report (METAR) for Venice Marco Polo Airport

Retrieved 2019/10/22 10:20 UTC (6 minutes ago):

LIPZ 221020Z 16003KT 130V200 CAVOK 20/16 Q1024 NOSIG

Aviation forecast (TAF) for Venice Marco Polo Airport

Retrieved 2019/10/22 06:00 UTC (4 hours ago):

TAF LIPZ 220500Z 2206/2312 VRB05KT 0200 FG BKN002 BECMG 2207/2210 6000 NSC BECMG 2218/2220 3000 BR BECMG 2222/2301 0100 FG BKN001 BECMG 2308/2310 4000 BR